sensor_id;sensor_type;location;lat;lon;timestamp;pressure;altitude;pressure_sealevel;temperature;humidity
48200;BME280;33990;44.602;10.976;2023-07-31T00:00:27;100664.66;;;27.41;57.96
48200;BME280;33990;44.602;10.976;2023-07-31T00:02:54;100666.34;;;27.42;57.91
48200;BME280;33990;44.602;10.976;2023-07-31T00:05:23;100653.59;;;27.43;57.83
48200;BME280;33990;44.602;10.976;2023-07-31T00:07:51;100657.19;;;27.43;58.00
48200;BME280;33990;44.602;10.976;2023-07-31T00:10:18;100656.31;;;27.43;57.59
48200;BME280;33990;44.602;10.976;2023-07-31T00:12:46;100654.47;;;27.43;57.81
48200;BME280;33990;44.602;10.976;2023-07-31T00:15:14;100650.69;;;27.44;57.85
48200;BME280;33990;44.602;10.976;2023-07-31T00:17:41;100657.81;;;27.45;57.87
48200;BME280;33990;44.602;10.976;2023-07-31T00:20:09;100665.97;;;27.45;57.47
48200;BME280;33990;44.602;10.976;2023-07-31T00:22:36;100655.09;;;27.45;57.40
48200;BME280;33990;44.602;10.976;2023-07-31T00:25:04;100653.22;;;27.46;57.60
48200;BME280;33990;44.602;10.976;2023-07-31T00:27:33;100656.78;;;27.46;57.60
48200;BME280;33990;44.602;10.976;2023-07-31T00:30:01;100655.56;;;27.49;57.58
48200;BME280;33990;44.602;10.976;2023-07-31T00:32:28;100653.69;;;27.49;57.58
48200;BME280;33990;44.602;10.976;2023-07-31T00:34:55;100652.00;;;27.48;57.65
48200;BME280;33990;44.602;10.976;2023-07-31T00:37:23;100658.09;;;27.50;57.34
48200;BME280;33990;44.602;10.976;2023-07-31T00:39:50;100660.78;;;27.50;57.19
48200;BME280;33990;44.602;10.976;2023-07-31T00:42:17;100655.34;;;27.50;56.97
48200;BME280;33990;44.602;10.976;2023-07-31T00:44:45;100668.78;;;27.52;57.13
48200;BME280;33990;44.602;10.976;2023-07-31T00:47:12;100664.19;;;27.52;57.32
48200;BME280;33990;44.602;10.976;2023-07-31T00:49:39;100668.78;;;27.52;57.37
48200;BME280;33990;44.602;10.976;2023-07-31T00:52:09;100664.81;;;27.54;57.52
48200;BME280;33990;44.602;10.976;2023-07-31T00:54:37;100662.31;;;27.53;57.49
48200;BME280;33990;44.602;10.976;2023-07-31T00:57:05;100659.59;;;27.53;57.22
48200;BME280;33990;44.602;10.976;2023-07-31T00:59:35;100669.41;;;27.54;57.19
48200;BME280;33990;44.602;10.976;2023-07-31T01:02:03;100670.25;;;27.54;57.57
48200;BME280;33990;44.602;10.976;2023-07-31T01:04:31;100681.13;;;27.54;57.41
48200;BME280;33990;44.602;10.976;2023-07-31T01:12:24;100684.72;;;27.55;57.37
48200;BME280;33990;44.602;10.976;2023-07-31T01:15:08;100684.53;;;27.56;57.16
48200;BME280;33990;44.602;10.976;2023-07-31T01:17:39;100684.53;;;27.56;57.23
48200;BME280;33990;44.602;10.976;2023-07-31T01:20:27;100680.75;;;27.57;57.19
48200;BME280;33990;44.602;10.976;2023-07-31T01:26:15;100679.94;;;27.57;57.27
48200;BME280;33990;44.602;10.976;2023-07-31T01:31:23;100678.88;;;27.58;57.46
48200;BME280;33990;44.602;10.976;2023-07-31T01:33:53;100677.00;;;27.58;57.15
48200;BME280;33990;44.602;10.976;2023-07-31T01:36:22;100682.44;;;27.58;57.28
48200;BME280;33990;44.602;10.976;2023-07-31T01:38:50;100690.59;;;27.58;57.41
48200;BME280;33990;44.602;10.976;2023-07-31T01:41:18;100683.31;;;27.59;57.45
48200;BME280;33990;44.602;10.976;2023-07-31T01:43:46;100684.16;;;27.59;57.50
48200;BME280;33990;44.602;10.976;2023-07-31T01:46:13;100686.03;;;27.59;57.41
48200;BME280;33990;44.602;10.976;2023-07-31T01:48:41;100691.28;;;27.60;57.43
48200;BME280;33990;44.602;10.976;2023-07-31T01:51:08;100689.59;;;27.59;57.09
48200;BME280;33990;44.602;10.976;2023-07-31T01:53:36;100686.88;;;27.59;57.23
48200;BME280;33990;44.602;10.976;2023-07-31T01:56:03;100685.84;;;27.60;57.31
48200;BME280;33990;44.602;10.976;2023-07-31T01:58:32;100683.31;;;27.59;57.40
48200;BME280;33990;44.602;10.976;2023-07-31T02:00:59;100689.41;;;27.61;57.49
48200;BME280;33990;44.602;10.976;2023-07-31T02:03:27;100697.56;;;27.61;57.24
48200;BME280;33990;44.602;10.976;2023-07-31T02:05:54;100683.94;;;27.61;57.40
48200;BME280;33990;44.602;10.976;2023-07-31T02:08:24;100687.50;;;27.61;57.34
48200;BME280;33990;44.602;10.976;2023-07-31T02:10:52;100689.19;;;27.63;57.23
48200;BME280;33990;44.602;10.976;2023-07-31T02:13:19;100701.78;;;27.64;57.61
48200;BME280;33990;44.602;10.976;2023-07-31T02:15:47;100694.63;;;27.63;57.17
48200;BME280;33990;44.602;10.976;2023-07-31T02:18:15;100690.22;;;27.61;57.25
48200;BME280;33990;44.602;10.976;2023-07-31T02:20:42;100690.91;;;27.64;57.14
48200;BME280;33990;44.602;10.976;2023-07-31T02:23:10;100681.91;;;27.63;57.21
48200;BME280;33990;44.602;10.976;2023-07-31T02:25:37;100680.03;;;27.64;57.47
48200;BME280;33990;44.602;10.976;2023-07-31T02:28:05;100685.47;;;27.64;57.58
48200;BME280;33990;44.602;10.976;2023-07-31T02:30:32;100684.63;;;27.63;57.15
48200;BME280;33990;44.602;10.976;2023-07-31T02:32:59;100685.47;;;27.64;57.22
48200;BME280;33990;44.602;10.976;2023-07-31T02:35:27;100684.41;;;27.65;57.67
48200;BME280;33990;44.602;10.976;2023-07-31T02:37:54;100685.47;;;27.64;57.58
48200;BME280;33990;44.602;10.976;2023-07-31T02:40:22;100692.56;;;27.65;57.40
48200;BME280;33990;44.602;10.976;2023-07-31T02:42:49;100691.53;;;27.66;57.56
48200;BME280;33990;44.602;10.976;2023-07-31T02:45:16;100687.13;;;27.65;57.52
48200;BME280;33990;44.602;10.976;2023-07-31T02:47:44;100687.13;;;27.65;57.18
48200;BME280;33990;44.602;10.976;2023-07-31T02:50:11;100692.56;;;27.65;57.37
48200;BME280;33990;44.602;10.976;2023-07-31T02:52:39;100689.84;;;27.65;57.48
48200;BME280;33990;44.602;10.976;2023-07-31T02:55:06;100689.03;;;27.64;57.85
48200;BME280;33990;44.602;10.976;2023-07-31T02:57:34;100686.47;;;27.63;57.85
48200;BME280;33990;44.602;10.976;2023-07-31T03:00:02;100694.63;;;27.63;57.94
48200;BME280;33990;44.602;10.976;2023-07-31T03:02:32;100683.94;;;27.61;58.00
48200;BME280;33990;44.602;10.976;2023-07-31T03:05:00;100695.66;;;27.61;58.01
48200;BME280;33990;44.602;10.976;2023-07-31T03:07:28;100691.28;;;27.60;58.20
48200;BME280;33990;44.602;10.976;2023-07-31T03:09:57;100687.72;;;27.60;58.29
48200;BME280;33990;44.602;10.976;2023-07-31T03:12:24;100687.72;;;27.60;58.37
48200;BME280;33990;44.602;10.976;2023-07-31T03:14:52;100682.28;;;27.60;58.61
48200;BME280;33990;44.602;10.976;2023-07-31T03:17:19;100685.84;;;27.60;58.64
48200;BME280;33990;44.602;10.976;2023-07-31T03:19:46;100683.31;;;27.59;58.50
48200;BME280;33990;44.602;10.976;2023-07-31T03:22:14;100685.16;;;27.58;58.39
48200;BME280;33990;44.602;10.976;2023-07-31T03:24:41;100684.31;;;27.58;58.54
48200;BME280;33990;44.602;10.976;2023-07-31T03:27:09;100681.59;;;27.58;58.55
48200;BME280;33990;44.602;10.976;2023-07-31T03:29:36;100687.03;;;27.58;58.77
48200;BME280;33990;44.602;10.976;2023-07-31T03:32:04;100687.03;;;27.58;58.38
48200;BME280;33990;44.602;10.976;2023-07-31T03:34:31;100691.66;;;27.57;58.91
48200;BME280;33990;44.602;10.976;2023-07-31T03:36:59;100693.31;;;27.58;58.54
48200;BME280;33990;44.602;10.976;2023-07-31T03:39:27;100696.25;;;27.57;58.45
48200;BME280;33990;44.602;10.976;2023-07-31T03:41:54;100700.84;;;27.56;58.34
48200;BME280;33990;44.602;10.976;2023-07-31T03:44:21;100701.69;;;27.57;58.87
48200;BME280;33990;44.602;10.976;2023-07-31T03:46:49;100713.59;;;27.56;58.59
48200;BME280;33990;44.602;10.976;2023-07-31T03:49:18;100719.88;;;27.56;58.85
48200;BME280;33990;44.602;10.976;2023-07-31T03:51:46;100715.47;;;27.55;58.97
48200;BME280;33990;44.602;10.976;2023-07-31T03:54:13;100721.94;;;27.54;58.60
48200;BME280;33990;44.602;10.976;2023-07-31T03:56:41;100719.03;;;27.56;58.58
48200;BME280;33990;44.602;10.976;2023-07-31T03:59:09;100719.03;;;27.56;58.47
48200;BME280;33990;44.602;10.976;2023-07-31T04:01:36;100721.75;;;27.56;58.71
48200;BME280;33990;44.602;10.976;2023-07-31T04:04:04;100714.66;;;27.55;58.75
48200;BME280;33990;44.602;10.976;2023-07-31T04:06:32;100719.22;;;27.54;58.73
48200;BME280;33990;44.602;10.976;2023-07-31T04:09:02;100713.78;;;27.54;58.86
48200;BME280;33990;44.602;10.976;2023-07-31T04:11:29;100716.31;;;27.56;58.87
48200;BME280;33990;44.602;10.976;2023-07-31T04:13:57;100715.66;;;27.54;58.40
48200;BME280;33990;44.602;10.976;2023-07-31T04:16:24;100722.78;;;27.55;58.72
48200;BME280;33990;44.602;10.976;2023-07-31T04:18:52;100717.34;;;27.55;58.60
48200;BME280;33990;44.602;10.976;2023-07-31T04:21:19;100713.59;;;27.56;58.95
48200;BME280;33990;44.602;10.976;2023-07-31T04:23:47;100725.31;;;27.56;58.86
48200;BME280;33990;44.602;10.976;2023-07-31T04:26:14;100721.75;;;27.56;58.91
48200;BME280;33990;44.602;10.976;2023-07-31T04:28:42;100719.22;;;27.54;58.64
48200;BME280;33990;44.602;10.976;2023-07-31T04:31:09;100724.47;;;27.56;58.69
48200;BME280;33990;44.602;10.976;2023-07-31T04:33:36;100725.31;;;27.56;58.81
48200;BME280;33990;44.602;10.976;2023-07-31T04:36:05;100717.16;;;27.56;59.08
48200;BME280;33990;44.602;10.976;2023-07-31T04:38:32;100719.88;;;27.56;59.05
48200;BME280;33990;44.602;10.976;2023-07-31T04:40:59;100721.75;;;27.56;59.07
48200;BME280;33990;44.602;10.976;2023-07-31T04:43:27;100718.19;;;27.55;58.93
48200;BME280;33990;44.602;10.976;2023-07-31T04:45:54;100713.78;;;27.54;59.06
48200;BME280;33990;44.602;10.976;2023-07-31T04:48:22;100728.03;;;27.56;59.06
48200;BME280;33990;44.602;10.976;2023-07-31T04:50:49;100721.94;;;27.54;59.50
48200;BME280;33990;44.602;10.976;2023-07-31T04:53:16;100721.56;;;27.57;59.32
48200;BME280;33990;44.602;10.976;2023-07-31T04:55:44;100730.56;;;27.58;59.06
48200;BME280;33990;44.602;10.976;2023-07-31T04:58:11;100725.97;;;27.58;58.93
48200;BME280;33990;44.602;10.976;2023-07-31T05:00:39;100719.69;;;27.58;59.16
48200;BME280;33990;44.602;10.976;2023-07-31T05:03:06;100727.66;;;27.59;59.28
48200;BME280;33990;44.602;10.976;2023-07-31T05:05:34;100718.66;;;27.59;59.14
48200;BME280;33990;44.602;10.976;2023-07-31T05:08:03;100724.09;;;27.59;59.42
48200;BME280;33990;44.602;10.976;2023-07-31T05:10:30;100731.22;;;27.60;59.54
48200;BME280;33990;44.602;10.976;2023-07-31T05:12:58;100727.66;;;27.59;59.52
48200;BME280;33990;44.602;10.976;2023-07-31T05:15:25;100726.81;;;27.59;59.37
48200;BME280;33990;44.602;10.976;2023-07-31T05:17:53;100735.81;;;27.59;59.20
48200;BME280;33990;44.602;10.976;2023-07-31T05:20:21;100737.72;;;27.59;59.30
48200;BME280;33990;44.602;10.976;2023-07-31T05:22:48;100741.25;;;27.59;59.01
48200;BME280;33990;44.602;10.976;2023-07-31T05:25:15;100740.22;;;27.60;59.19
48200;BME280;33990;44.602;10.976;2023-07-31T05:27:43;100743.97;;;27.59;59.22
48200;BME280;33990;44.602;10.976;2023-07-31T05:30:10;100742.28;;;27.58;59.47
48200;BME280;33990;44.602;10.976;2023-07-31T05:32:38;100752.97;;;27.60;59.34
48200;BME280;33990;44.602;10.976;2023-07-31T05:35:05;100750.25;;;27.60;59.45
48200;BME280;33990;44.602;10.976;2023-07-31T05:37:33;100745.66;;;27.60;59.63
48200;BME280;33990;44.602;10.976;2023-07-31T05:40:00;100745.66;;;27.60;59.49
48200;BME280;33990;44.602;10.976;2023-07-31T05:42:27;100750.06;;;27.61;59.58
48200;BME280;33990;44.602;10.976;2023-07-31T05:44:55;100752.78;;;27.61;59.63
48200;BME280;33990;44.602;10.976;2023-07-31T05:47:22;100752.78;;;27.61;59.37
48200;BME280;33990;44.602;10.976;2023-07-31T05:49:49;100755.50;;;27.61;59.65
48200;BME280;33990;44.602;10.976;2023-07-31T05:52:19;100754.47;;;27.63;60.01
48200;BME280;33990;44.602;10.976;2023-07-31T05:54:47;100758.06;;;27.63;59.87
48200;BME280;33990;44.602;10.976;2023-07-31T05:57:14;100752.63;;;27.63;60.21
48200;BME280;33990;44.602;10.976;2023-07-31T05:59:41;100758.91;;;27.64;59.88
48200;BME280;33990;44.602;10.976;2023-07-31T06:02:09;100761.78;;;27.62;60.21
48200;BME280;33990;44.602;10.976;2023-07-31T06:04:36;100760.78;;;27.63;59.84
48200;BME280;33990;44.602;10.976;2023-07-31T06:07:04;100759.91;;;27.63;60.04
48200;BME280;33990;44.602;10.976;2023-07-31T06:09:31;100759.25;;;27.60;60.01
48200;BME280;33990;44.602;10.976;2023-07-31T06:11:58;100750.25;;;27.60;59.75
48200;BME280;33990;44.602;10.976;2023-07-31T06:14:26;100756.53;;;27.60;59.76
48200;BME280;33990;44.602;10.976;2023-07-31T06:16:53;100760.09;;;27.61;60.18
48200;BME280;33990;44.602;10.976;2023-07-31T06:19:21;100761.78;;;27.62;60.12
48200;BME280;33990;44.602;10.976;2023-07-31T06:21:48;100775.38;;;27.62;60.14
48200;BME280;33990;44.602;10.976;2023-07-31T06:24:15;100773.69;;;27.61;60.25
48200;BME280;33990;44.602;10.976;2023-07-31T06:26:46;100774.53;;;27.61;59.90
48200;BME280;33990;44.602;10.976;2023-07-31T06:29:13;100776.63;;;27.59;59.86
48200;BME280;33990;44.602;10.976;2023-07-31T06:31:41;100779.34;;;27.59;60.09
48200;BME280;33990;44.602;10.976;2023-07-31T06:34:08;100773.91;;;27.59;59.92
48200;BME280;33990;44.602;10.976;2023-07-31T06:36:36;100775.56;;;27.60;59.81
48200;BME280;33990;44.602;10.976;2023-07-31T06:39:04;100781.03;;;27.60;59.76
48200;BME280;33990;44.602;10.976;2023-07-31T06:41:31;100781.66;;;27.63;59.23
48200;BME280;33990;44.602;10.976;2023-07-31T06:43:59;100780.66;;;27.64;59.16
48200;BME280;33990;44.602;10.976;2023-07-31T06:46:27;100781.28;;;27.66;59.26
48200;BME280;33990;44.602;10.976;2023-07-31T06:48:54;100789.44;;;27.66;59.26
48200;BME280;33990;44.602;10.976;2023-07-31T06:51:22;100789.66;;;27.64;59.88
48200;BME280;33990;44.602;10.976;2023-07-31T06:53:49;100787.97;;;27.63;59.55
48200;BME280;33990;44.602;10.976;2023-07-31T06:56:16;100792.53;;;27.63;59.68
48200;BME280;33990;44.602;10.976;2023-07-31T06:58:44;100791.53;;;27.64;59.54
48200;BME280;33990;44.602;10.976;2023-07-31T07:01:11;100785.88;;;27.65;59.84
48200;BME280;33990;44.602;10.976;2023-07-31T07:03:39;100790.50;;;27.65;59.69
48200;BME280;33990;44.602;10.976;2023-07-31T07:06:06;100800.31;;;27.66;59.89
48200;BME280;33990;44.602;10.976;2023-07-31T07:08:34;100792.16;;;27.66;59.97
48200;BME280;33990;44.602;10.976;2023-07-31T07:11:01;100796.97;;;27.64;59.99
48200;BME280;33990;44.602;10.976;2023-07-31T07:13:29;100790.69;;;27.63;59.41
48200;BME280;33990;44.602;10.976;2023-07-31T07:15:56;100788.34;;;27.60;59.21
48200;BME280;33990;44.602;10.976;2023-07-31T07:18:23;100796.22;;;27.55;59.05
48200;BME280;33990;44.602;10.976;2023-07-31T07:20:52;100789.00;;;27.47;58.95
48200;BME280;33990;44.602;10.976;2023-07-31T07:23:20;100789.34;;;27.44;59.15
48200;BME280;33990;44.602;10.976;2023-07-31T07:25:48;100785.31;;;27.40;58.95
48200;BME280;33990;44.602;10.976;2023-07-31T07:28:15;100776.69;;;27.36;58.61
48200;BME280;33990;44.602;10.976;2023-07-31T07:30:43;100780.34;;;27.29;58.97
48200;BME280;33990;44.602;10.976;2023-07-31T07:33:10;100778.66;;;27.28;59.37
48200;BME280;33990;44.602;10.976;2023-07-31T07:35:39;100788.28;;;27.30;59.41
48200;BME280;33990;44.602;10.976;2023-07-31T07:38:06;100790.47;;;27.35;59.31
48200;BME280;33990;44.602;10.976;2023-07-31T07:40:38;100795.53;;;27.38;58.74
48200;BME280;33990;44.602;10.976;2023-07-31T07:43:06;100789.91;;;27.40;58.60
48200;BME280;33990;44.602;10.976;2023-07-31T07:45:34;100790.56;;;27.42;58.41
48200;BME280;33990;44.602;10.976;2023-07-31T07:48:01;100794.78;;;27.44;58.33
48200;BME280;33990;44.602;10.976;2023-07-31T07:50:28;100795.28;;;27.48;57.94
48200;BME280;33990;44.602;10.976;2023-07-31T07:52:56;100804.06;;;27.50;58.08
48200;BME280;33990;44.602;10.976;2023-07-31T07:55:23;100808.50;;;27.51;57.81
48200;BME280;33990;44.602;10.976;2023-07-31T07:57:50;100809.34;;;27.51;57.72
48200;BME280;33990;44.602;10.976;2023-07-31T08:00:18;100806.63;;;27.51;57.66
48200;BME280;33990;44.602;10.976;2023-07-31T08:02:45;100804.91;;;27.50;57.89
48200;BME280;33990;44.602;10.976;2023-07-31T08:05:13;100804.91;;;27.50;57.57
48200;BME280;33990;44.602;10.976;2023-07-31T08:07:41;100807.00;;;27.48;57.99
48200;BME280;33990;44.602;10.976;2023-07-31T08:10:08;100803.44;;;27.48;57.52
48200;BME280;33990;44.602;10.976;2023-07-31T08:12:35;100801.56;;;27.48;57.79
48200;BME280;33990;44.602;10.976;2023-07-31T08:15:03;100797.78;;;27.49;57.33
48200;BME280;33990;44.602;10.976;2023-07-31T08:17:30;100801.34;;;27.50;57.51
48200;BME280;33990;44.602;10.976;2023-07-31T08:19:58;100798.25;;;27.53;57.78
48200;BME280;33990;44.602;10.976;2023-07-31T08:22:25;100795.19;;;27.56;57.32
48200;BME280;33990;44.602;10.976;2023-07-31T08:24:53;100797.69;;;27.57;57.43
48200;BME280;33990;44.602;10.976;2023-07-31T08:27:20;100790.84;;;27.61;57.08
48200;BME280;33990;44.602;10.976;2023-07-31T08:29:48;100789.81;;;27.63;57.41
48200;BME280;33990;44.602;10.976;2023-07-31T08:32:15;100786.94;;;27.64;57.34
48200;BME280;33990;44.602;10.976;2023-07-31T08:34:42;100793.00;;;27.66;57.48
48200;BME280;33990;44.602;10.976;2023-07-31T08:37:10;100795.56;;;27.68;57.43
48200;BME280;33990;44.602;10.976;2023-07-31T08:39:38;100782.81;;;27.68;57.33
48200;BME280;33990;44.602;10.976;2023-07-31T08:42:08;100772.75;;;27.69;57.38
48200;BME280;33990;44.602;10.976;2023-07-31T08:44:37;100777.16;;;27.70;57.44
48200;BME280;33990;44.602;10.976;2023-07-31T08:47:05;100784.47;;;27.69;57.06
48200;BME280;33990;44.602;10.976;2023-07-31T08:49:33;100793.31;;;27.71;57.31
48200;BME280;33990;44.602;10.976;2023-07-31T08:52:02;100793.13;;;27.73;57.19
48200;BME280;33990;44.602;10.976;2023-07-31T08:54:29;100793.97;;;27.73;57.11
48200;BME280;33990;44.602;10.976;2023-07-31T08:56:58;100782.22;;;27.73;57.04
48200;BME280;33990;44.602;10.976;2023-07-31T08:59:31;100781.22;;;27.74;57.03
48200;BME280;33990;44.602;10.976;2023-07-31T09:02:05;100779.34;;;27.74;56.92
48200;BME280;33990;44.602;10.976;2023-07-31T09:04:33;100781.06;;;27.75;57.12
48200;BME280;33990;44.602;10.976;2023-07-31T09:07:02;100786.50;;;27.75;56.81
48200;BME280;33990;44.602;10.976;2023-07-31T09:09:31;100781.91;;;27.76;57.10
48200;BME280;33990;44.602;10.976;2023-07-31T09:11:59;100789.00;;;27.77;56.78
48200;BME280;33990;44.602;10.976;2023-07-31T09:14:26;100777.28;;;27.76;57.14
48200;BME280;33990;44.602;10.976;2023-07-31T09:16:55;100787.97;;;27.78;57.14
48200;BME280;33990;44.602;10.976;2023-07-31T09:19:33;100786.09;;;27.78;56.80
48200;BME280;33990;44.602;10.976;2023-07-31T09:22:01;100778.78;;;27.79;56.77
48200;BME280;33990;44.602;10.976;2023-07-31T09:24:30;100777.75;;;27.80;56.97
48200;BME280;33990;44.602;10.976;2023-07-31T09:26:59;100772.13;;;27.81;57.12
48200;BME280;33990;44.602;10.976;2023-07-31T09:29:28;100770.25;;;27.82;56.66
48200;BME280;33990;44.602;10.976;2023-07-31T09:31:56;100778.22;;;27.83;57.06
48200;BME280;33990;44.602;10.976;2023-07-31T09:34:38;100770.91;;;27.84;57.04
48200;BME280;33990;44.602;10.976;2023-07-31T09:37:06;100764.44;;;27.85;56.97
48200;BME280;33990;44.602;10.976;2023-07-31T09:39:46;100762.34;;;27.87;57.09
48200;BME280;33990;44.602;10.976;2023-07-31T09:42:14;100766.94;;;27.87;56.76
48200;BME280;33990;44.602;10.976;2023-07-31T09:44:41;100758.78;;;27.87;56.95
48200;BME280;33990;44.602;10.976;2023-07-31T09:47:29;100757.78;;;27.88;57.57
48200;BME280;33990;44.602;10.976;2023-07-31T09:49:58;100756.91;;;27.87;57.73
48200;BME280;33990;44.602;10.976;2023-07-31T09:52:26;100756.91;;;27.87;57.59
48200;BME280;33990;44.602;10.976;2023-07-31T09:54:54;100764.22;;;27.87;57.86
48200;BME280;33990;44.602;10.976;2023-07-31T09:57:22;100757.56;;;27.89;57.63
48200;BME280;33990;44.602;10.976;2023-07-31T09:59:52;100755.69;;;27.90;57.33
48200;BME280;33990;44.602;10.976;2023-07-31T10:02:22;100756.53;;;27.90;57.65
48200;BME280;33990;44.602;10.976;2023-07-31T10:04:50;100759.44;;;27.89;57.43
48200;BME280;33990;44.602;10.976;2023-07-31T10:07:18;100753.63;;;27.92;57.44
48200;BME280;33990;44.602;10.976;2023-07-31T10:09:48;100749.03;;;27.92;57.54
48200;BME280;33990;44.602;10.976;2023-07-31T10:12:17;100749.03;;;27.92;57.19
48200;BME280;33990;44.602;10.976;2023-07-31T10:14:46;100744.44;;;27.93;57.43
48200;BME280;33990;44.602;10.976;2023-07-31T10:17:14;100753.44;;;27.93;57.02
48200;BME280;33990;44.602;10.976;2023-07-31T10:19:43;100754.06;;;27.95;57.49
48200;BME280;33990;44.602;10.976;2023-07-31T10:22:11;100745.53;;;27.98;57.60
48200;BME280;33990;44.602;10.976;2023-07-31T10:24:40;100740.75;;;28.00;57.90
48200;BME280;33990;44.602;10.976;2023-07-31T10:27:10;100746.84;;;28.02;57.93
48200;BME280;33990;44.602;10.976;2023-07-31T10:29:38;100742.91;;;28.05;57.92
48200;BME280;33990;44.602;10.976;2023-07-31T10:32:09;100737.91;;;28.08;57.30
48200;BME280;33990;44.602;10.976;2023-07-31T10:34:39;100737.72;;;28.10;57.62
48200;BME280;33990;44.602;10.976;2023-07-31T10:37:30;100735.47;;;28.14;57.37
48200;BME280;33990;44.602;10.976;2023-07-31T10:40:15;100729.63;;;28.17;57.24
48200;BME280;33990;44.602;10.976;2023-07-31T10:43:01;100731.31;;;28.18;56.83
48200;BME280;33990;44.602;10.976;2023-07-31T10:45:33;100733.00;;;28.19;56.96
48200;BME280;33990;44.602;10.976;2023-07-31T10:48:04;100734.03;;;28.18;57.20
48200;BME280;33990;44.602;10.976;2023-07-31T10:50:37;100734.03;;;28.18;57.39
48200;BME280;33990;44.602;10.976;2023-07-31T10:53:05;100728.59;;;28.18;57.39
48200;BME280;33990;44.602;10.976;2023-07-31T10:55:41;100725.03;;;28.17;57.30
48200;BME280;33990;44.602;10.976;2023-07-31T10:58:10;100722.50;;;28.16;57.37
48200;BME280;33990;44.602;10.976;2023-07-31T11:00:43;100726.06;;;28.16;57.46
48200;BME280;33990;44.602;10.976;2023-07-31T11:03:13;100723.53;;;28.15;57.73
48200;BME280;33990;44.602;10.976;2023-07-31T11:08:25;100725.88;;;28.18;56.67
48200;BME280;33990;44.602;10.976;2023-07-31T11:13:32;100721.72;;;28.22;55.95
48200;BME280;33990;44.602;10.976;2023-07-31T11:16:00;100713.34;;;28.23;55.99
48200;BME280;33990;44.602;10.976;2023-07-31T11:18:27;100715.06;;;28.24;55.56
48200;BME280;33990;44.602;10.976;2023-07-31T11:20:55;100714.22;;;28.24;55.96
48200;BME280;33990;44.602;10.976;2023-07-31T11:23:23;100717.97;;;28.23;56.17
48200;BME280;33990;44.602;10.976;2023-07-31T11:25:51;100710.00;;;28.21;56.46
48200;BME280;33990;44.602;10.976;2023-07-31T11:28:19;100700.78;;;28.22;56.09
48200;BME280;33990;44.602;10.976;2023-07-31T11:30:46;100695.34;;;28.22;56.06
48200;BME280;33990;44.602;10.976;2023-07-31T11:33:14;100689.72;;;28.24;56.41
48200;BME280;33990;44.602;10.976;2023-07-31T11:35:48;100690.34;;;28.26;56.55
48200;BME280;33990;44.602;10.976;2023-07-31T11:40:55;100679.94;;;28.29;56.15
48200;BME280;33990;44.602;10.976;2023-07-31T11:43:24;100683.69;;;28.28;56.88
48200;BME280;33990;44.602;10.976;2023-07-31T11:45:54;100676.53;;;28.27;56.61
48200;BME280;33990;44.602;10.976;2023-07-31T11:48:23;100667.75;;;28.25;56.97
48200;BME280;33990;44.602;10.976;2023-07-31T11:50:52;100667.94;;;28.24;57.29
48200;BME280;33990;44.602;10.976;2023-07-31T11:55:58;100660.03;;;28.29;56.64
48200;BME280;33990;44.602;10.976;2023-07-31T11:58:26;100664.19;;;28.46;55.03
48200;BME280;33990;44.602;10.976;2023-07-31T12:00:55;100656.22;;;28.45;55.36
48200;BME280;33990;44.602;10.976;2023-07-31T12:03:23;100649.72;;;28.46;55.17
48200;BME280;33990;44.602;10.976;2023-07-31T12:05:52;100650.81;;;28.51;55.65
48200;BME280;33990;44.602;10.976;2023-07-31T12:08:21;100650.63;;;28.53;55.19
48200;BME280;33990;44.602;10.976;2023-07-31T12:10:51;100649.13;;;28.50;55.59
48200;BME280;33990;44.602;10.976;2023-07-31T12:13:24;100648.50;;;28.48;55.99
48200;BME280;33990;44.602;10.976;2023-07-31T12:15:59;100635.00;;;28.68;54.03
48200;BME280;33990;44.602;10.976;2023-07-31T12:18:29;100633.94;;;28.63;54.40
48200;BME280;33990;44.602;10.976;2023-07-31T12:20:57;100629.94;;;28.58;55.31
48200;BME280;33990;44.602;10.976;2023-07-31T12:23:31;100629.47;;;28.55;55.26
48200;BME280;33990;44.602;10.976;2023-07-31T12:28:36;100622.81;;;28.57;54.71
48200;BME280;33990;44.602;10.976;2023-07-31T12:31:10;100617.59;;;28.63;54.55
48200;BME280;33990;44.602;10.976;2023-07-31T12:33:39;100614.47;;;28.66;54.20
48200;BME280;33990;44.602;10.976;2023-07-31T12:36:14;100617.38;;;28.64;54.52
48200;BME280;33990;44.602;10.976;2023-07-31T12:38:42;100606.25;;;28.59;54.88
48200;BME280;33990;44.602;10.976;2023-07-31T12:41:10;100604.28;;;28.74;54.64
48200;BME280;33990;44.602;10.976;2023-07-31T12:43:39;100596.69;;;28.70;55.10
48200;BME280;33990;44.602;10.976;2023-07-31T12:46:08;100593.75;;;28.65;55.25
48200;BME280;33990;44.602;10.976;2023-07-31T12:48:37;100595.19;;;28.61;55.66
48200;BME280;33990;44.602;10.976;2023-07-31T12:51:05;100588.44;;;28.56;55.71
48200;BME280;33990;44.602;10.976;2023-07-31T12:53:36;100581.72;;;28.52;56.25
48200;BME280;33990;44.602;10.976;2023-07-31T12:56:03;100580.22;;;28.50;56.34
48200;BME280;33990;44.602;10.976;2023-07-31T12:58:31;100577.94;;;28.53;55.51
48200;BME280;33990;44.602;10.976;2023-07-31T13:00:59;100572.69;;;28.52;55.60
48200;BME280;33990;44.602;10.976;2023-07-31T13:03:26;100571.84;;;28.51;55.87
48200;BME280;33990;44.602;10.976;2023-07-31T13:05:54;100563.66;;;28.51;55.86
48200;BME280;33990;44.602;10.976;2023-07-31T13:08:21;100565.38;;;28.52;55.37
48200;BME280;33990;44.602;10.976;2023-07-31T13:10:49;100559.94;;;28.52;55.66